Time;durP1;ratioP1;P1;durP2;ratioP2;P2;SDS_P1;SDS_P2;PMS_P1;PMS_P2;Temp;Humidity;BMP_temperature;BMP_pressure;BME280_temperature;BME280_humidity;BME280_pressure;Samples;Min_cycle;Max_cycle;Signal;HPM_P1;HPM_P2
2022/03/24 00:01:06;;;;;;;43.88;33.38;;;;;;;;;;5051163;28;20037;-61
2022/03/24 00:03:32;;;;;;;48.60;34.05;;;;;;;;;;5050912;28;20075;-61
2022/03/24 00:05:58;;;;;;;47.20;34.88;;;;;;;;;;5049756;28;20098;-61
2022/03/24 00:08:24;;;;;;;48.83;35.17;;;;;;;;;;5065880;28;20112;-61
2022/03/24 00:10:50;;;;;;;52.65;37.83;;;;;;;;;;5049770;28;20047;-61
2022/03/24 00:13:17;;;;;;;48.70;35.08;;;;;;;;;;5050638;28;20044;-61
2022/03/24 00:15:43;;;;;;;52.00;36.92;;;;;;;;;;5054445;28;20403;-61
2022/03/24 00:18:09;;;;;;;46.50;34.70;;;;;;;;;;5050425;28;20120;-61
2022/03/24 00:20:35;;;;;;;47.15;33.35;;;;;;;;;;5050163;28;20048;-61
2022/03/24 00:23:02;;;;;;;53.42;37.03;;;;;;;;;;5049730;28;20072;-61
2022/03/24 00:25:28;;;;;;;56.58;38.47;;;;;;;;;;5048135;28;20033;-61
2022/03/24 00:27:55;;;;;;;58.55;41.00;;;;;;;;;;5049892;28;20045;-61
2022/03/24 00:30:21;;;;;;;54.70;38.20;;;;;;;;;;5027655;28;20057;-61
2022/03/24 00:32:48;;;;;;;55.75;37.17;;;;;;;;;;5030442;28;20052;-61
2022/03/24 00:35:14;;;;;;;57.00;39.13;;;;;;;;;;5029362;28;20037;-61
2022/03/24 00:37:40;;;;;;;54.60;38.97;;;;;;;;;;5027512;28;20038;-61
2022/03/24 00:40:07;;;;;;;58.10;41.13;;;;;;;;;;5029260;28;20049;-61
2022/03/24 00:42:35;;;;;;;49.90;36.40;;;;;;;;;;5029957;28;20080;-61
2022/03/24 00:45:02;;;;;;;51.35;35.63;;;;;;;;;;5028580;28;20041;-61
2022/03/24 00:47:28;;;;;;;52.03;35.35;;;;;;;;;;5024538;28;20088;-62
2022/03/24 00:49:54;;;;;;;51.78;37.15;;;;;;;;;;5023328;28;20123;-61
2022/03/24 00:52:20;;;;;;;58.63;38.38;;;;;;;;;;5025852;28;20438;-61
2022/03/24 00:54:47;;;;;;;59.38;39.90;;;;;;;;;;5053800;28;20508;-62
2022/03/24 00:57:13;;;;;;;61.30;40.35;;;;;;;;;;5028448;28;20034;-61
2022/03/24 00:59:40;;;;;;;54.75;38.47;;;;;;;;;;5027666;28;20053;-61
2022/03/24 01:02:09;;;;;;;50.78;36.40;;;;;;;;;;5028600;28;20366;-61
2022/03/24 01:04:36;;;;;;;54.75;36.13;;;;;;;;;;5028971;28;20496;-62
2022/03/24 01:07:03;;;;;;;53.10;35.60;;;;;;;;;;5029161;28;20041;-61
2022/03/24 01:09:30;;;;;;;52.25;36.05;;;;;;;;;;5029991;28;20116;-61
2022/03/24 01:11:56;;;;;;;53.55;38.03;;;;;;;;;;5030247;28;20099;-61
2022/03/24 01:14:23;;;;;;;52.33;37.38;;;;;;;;;;5065245;28;20144;-61
2022/03/24 01:16:51;;;;;;;55.72;38.40;;;;;;;;;;5033213;28;20057;-62
2022/03/24 01:19:17;;;;;;;56.63;37.80;;;;;;;;;;5033371;28;20042;-62
2022/03/24 01:21:43;;;;;;;55.72;37.85;;;;;;;;;;5032275;28;20240;-61
2022/03/24 01:24:10;;;;;;;53.35;34.05;;;;;;;;;;5033015;28;20163;-61
2022/03/24 01:26:36;;;;;;;45.05;31.88;;;;;;;;;;5037047;28;20037;-61
2022/03/24 01:29:03;;;;;;;47.13;28.98;;;;;;;;;;5032961;28;20037;-61
2022/03/24 01:31:29;;;;;;;45.42;32.70;;;;;;;;;;5049228;28;20060;-62
2022/03/24 01:33:55;;;;;;;57.20;38.65;;;;;;;;;;5053631;28;20154;-61
2022/03/24 01:36:21;;;;;;;59.13;39.25;;;;;;;;;;5053006;28;20041;-61
2022/03/24 01:38:48;;;;;;;47.53;33.70;;;;;;;;;;5053861;28;20510;-61
2022/03/24 01:41:14;;;;;;;49.97;35.17;;;;;;;;;;5053128;28;20435;-61
2022/03/24 01:43:40;;;;;;;44.83;31.98;;;;;;;;;;5052372;28;20405;-61
2022/03/24 01:46:07;;;;;;;45.83;32.92;;;;;;;;;;5034778;28;20488;-60
2022/03/24 01:48:33;;;;;;;49.58;34.83;;;;;;;;;;5051718;28;20377;-61
2022/03/24 01:50:59;;;;;;;39.85;28.13;;;;;;;;;;5052125;28;20037;-61
2022/03/24 01:53:25;;;;;;;40.70;28.23;;;;;;;;;;5052363;28;20060;-61
2022/03/24 01:55:54;;;;;;;54.58;37.40;;;;;;;;;;5052482;28;20352;-61
2022/03/24 01:58:22;;;;;;;45.10;32.20;;;;;;;;;;5047516;28;20142;-61
2022/03/24 02:00:48;;;;;;;45.60;31.33;;;;;;;;;;5047575;28;20033;-61
2022/03/24 02:03:16;;;;;;;44.58;31.45;;;;;;;;;;5049337;28;20082;-61
2022/03/24 02:05:42;;;;;;;48.15;34.22;;;;;;;;;;5057692;28;20037;-61
2022/03/24 02:08:09;;;;;;;41.85;30.67;;;;;;;;;;5052855;28;20049;-61
2022/03/24 02:10:35;;;;;;;48.47;33.85;;;;;;;;;;5051118;28;20037;-61
2022/03/24 02:13:03;;;;;;;53.97;37.60;;;;;;;;;;5052975;28;20063;-61
2022/03/24 02:15:29;;;;;;;55.60;37.72;;;;;;;;;;5052296;28;20045;-62
2022/03/24 02:17:55;;;;;;;57.20;37.17;;;;;;;;;;5035895;28;20217;-61
2022/03/24 02:20:22;;;;;;;57.92;37.65;;;;;;;;;;5060233;28;20048;-61
2022/03/24 02:22:49;;;;;;;54.88;38.92;;;;;;;;;;5060283;28;20041;-62
2022/03/24 02:25:15;;;;;;;53.42;36.95;;;;;;;;;;5049947;28;20045;-61
2022/03/24 02:27:44;;;;;;;58.95;40.15;;;;;;;;;;5033825;28;20053;-61
2022/03/24 02:30:11;;;;;;;71.75;46.53;;;;;;;;;;5051146;28;20128;-61
2022/03/24 02:32:37;;;;;;;71.35;46.53;;;;;;;;;;5051470;28;20127;-61
2022/03/24 02:35:04;;;;;;;50.92;34.40;;;;;;;;;;5034464;28;20084;-61
2022/03/24 02:37:30;;;;;;;43.97;32.50;;;;;;;;;;5034563;28;20433;-62
2022/03/24 02:39:58;;;;;;;45.17;31.35;;;;;;;;;;5051346;28;20049;-61
2022/03/24 02:42:26;;;;;;;48.90;34.45;;;;;;;;;;5051562;28;20044;-61
2022/03/24 02:44:53;;;;;;;54.75;37.50;;;;;;;;;;5051306;28;20476;-61
2022/03/24 02:47:19;;;;;;;54.83;37.30;;;;;;;;;;5050824;28;20075;-61
2022/03/24 02:49:47;;;;;;;63.85;41.55;;;;;;;;;;5051566;28;20400;-61
2022/03/24 02:52:13;;;;;;;64.97;43.00;;;;;;;;;;5051073;28;20392;-61
2022/03/24 02:54:40;;;;;;;55.50;38.15;;;;;;;;;;5032501;28;20594;-62
2022/03/24 02:57:07;;;;;;;52.88;33.90;;;;;;;;;;5051730;28;20131;-61
2022/03/24 02:59:33;;;;;;;62.53;39.58;;;;;;;;;;5050812;28;20037;-61
2022/03/24 03:02:01;;;;;;;65.72;42.22;;;;;;;;;;5049309;28;20055;-61
2022/03/24 03:04:28;;;;;;;58.40;38.90;;;;;;;;;;5046791;28;20063;-61
2022/03/24 03:06:54;;;;;;;56.95;37.80;;;;;;;;;;5046973;28;20055;-62
2022/03/24 03:09:21;;;;;;;55.58;36.33;;;;;;;;;;5048274;28;20452;-61
2022/03/24 03:11:48;;;;;;;51.17;35.72;;;;;;;;;;5048907;28;20057;-62
2022/03/24 03:14:15;;;;;;;50.55;33.78;;;;;;;;;;5050613;28;20045;-61
2022/03/24 03:16:41;;;;;;;45.92;29.48;;;;;;;;;;5050856;28;20100;-61
2022/03/24 03:19:08;;;;;;;44.95;28.95;;;;;;;;;;5051253;28;20045;-61
2022/03/24 03:21:36;;;;;;;47.42;30.48;;;;;;;;;;5050167;28;20044;-61
2022/03/24 03:24:03;;;;;;;50.35;33.90;;;;;;;;;;5050384;28;20040;-61
2022/03/24 03:26:29;;;;;;;62.30;40.00;;;;;;;;;;5032728;28;20392;-61
2022/03/24 03:28:56;;;;;;;67.60;44.67;;;;;;;;;;5050440;28;20055;-61
2022/03/24 03:31:22;;;;;;;57.20;38.38;;;;;;;;;;5050749;28;20551;-61
2022/03/24 03:33:50;;;;;;;55.78;37.22;;;;;;;;;;5050727;28;20235;-62
2022/03/24 03:36:18;;;;;;;56.08;37.13;;;;;;;;;;5032210;28;20128;-61
2022/03/24 03:38:45;;;;;;;44.65;29.02;;;;;;;;;;5051541;28;20391;-63
2022/03/24 03:41:12;;;;;;;39.38;26.92;;;;;;;;;;5048496;28;20128;-61
2022/03/24 03:43:38;;;;;;;37.63;26.20;;;;;;;;;;5049929;28;20044;-61
2022/03/24 03:46:04;;;;;;;41.30;29.55;;;;;;;;;;5050345;28;20147;-61
2022/03/24 03:48:30;;;;;;;38.20;26.88;;;;;;;;;;5051721;28;20661;-61
2022/03/24 03:50:57;;;;;;;47.35;30.30;;;;;;;;;;5049411;28;20494;-61
2022/03/24 03:53:23;;;;;;;39.42;27.15;;;;;;;;;;5031772;28;20458;-62
2022/03/24 03:55:50;;;;;;;51.40;33.13;;;;;;;;;;5049463;28;20080;-61
2022/03/24 03:58:16;;;;;;;56.22;35.58;;;;;;;;;;5050115;28;20071;-61
2022/03/24 04:00:57;;;;;;;52.53;34.65;;;;;;;;;;5050121;28;20112;-61
2022/03/24 04:03:24;;;;;;;49.85;34.40;;;;;;;;;;5048350;28;20045;-61
2022/03/24 04:05:52;;;;;;;49.67;32.30;;;;;;;;;;5032365;28;20037;-61
2022/03/24 04:08:20;;;;;;;54.22;24.65;;;;;;;;;;5049961;28;20139;-61
2022/03/24 04:10:46;;;;;;;25.65;20.73;;;;;;;;;;5049409;28;20049;-61
2022/03/24 04:13:12;;;;;;;24.30;19.15;;;;;;;;;;5046215;28;20148;-62
2022/03/24 04:15:39;;;;;;;24.27;18.92;;;;;;;;;;5028678;28;20094;-61
2022/03/24 04:18:06;;;;;;;20.35;17.02;;;;;;;;;;5060515;28;20041;-61
2022/03/24 04:20:33;;;;;;;19.98;16.83;;;;;;;;;;5046909;28;20086;-62
2022/03/24 04:23:00;;;;;;;20.90;17.27;;;;;;;;;;5029832;28;20492;-61
2022/03/24 04:25:27;;;;;;;28.42;21.85;;;;;;;;;;5031816;28;20069;-61
2022/03/24 04:27:53;;;;;;;28.90;21.42;;;;;;;;;;5050022;28;20091;-61
2022/03/24 04:30:20;;;;;;;27.40;20.33;;;;;;;;;;5046992;28;20120;-61
2022/03/24 04:32:46;;;;;;;25.52;19.77;;;;;;;;;;5049111;28;20122;-61
2022/03/24 04:35:13;;;;;;;28.13;21.00;;;;;;;;;;5050333;28;20106;-61
2022/03/24 04:37:40;;;;;;;23.70;16.75;;;;;;;;;;5050725;28;20059;-61
2022/03/24 04:40:07;;;;;;;28.60;19.48;;;;;;;;;;5050058;28;20106;-61
2022/03/24 04:42:33;;;;;;;37.40;25.52;;;;;;;;;;5049506;28;20487;-62
2022/03/24 04:45:00;;;;;;;46.70;31.33;;;;;;;;;;5049687;28;20043;-61
2022/03/24 04:47:27;;;;;;;50.35;30.05;;;;;;;;;;5049038;28;20140;-61
2022/03/24 04:49:54;;;;;;;35.53;26.33;;;;;;;;;;5049544;28;20083;-61
2022/03/24 04:52:22;;;;;;;38.13;27.02;;;;;;;;;;5030395;28;20103;-61
2022/03/24 04:54:48;;;;;;;37.13;25.60;;;;;;;;;;5045898;28;20087;-61
2022/03/24 04:57:15;;;;;;;30.40;22.33;;;;;;;;;;5064579;28;20446;-61
2022/03/24 04:59:42;;;;;;;33.38;24.23;;;;;;;;;;5048420;28;20462;-61
2022/03/24 05:02:15;;;;;;;42.42;26.98;;;;;;;;;;5031547;28;20389;-61
2022/03/24 05:04:41;;;;;;;38.90;27.52;;;;;;;;;;5046384;28;20116;-61
2022/03/24 05:07:08;;;;;;;39.15;27.85;;;;;;;;;;5063872;28;20071;-61
2022/03/24 05:09:34;;;;;;;39.83;28.98;;;;;;;;;;5049527;28;20045;-61
2022/03/24 05:12:00;;;;;;;37.92;27.85;;;;;;;;;;5064548;28;20049;-61
2022/03/24 05:14:26;;;;;;;34.80;26.40;;;;;;;;;;5048613;28;20045;-61
2022/03/24 05:16:53;;;;;;;32.30;24.83;;;;;;;;;;5049114;28;20484;-61
2022/03/24 05:19:19;;;;;;;34.05;24.17;;;;;;;;;;5032286;28;20496;-61
2022/03/24 05:21:45;;;;;;;32.15;23.33;;;;;;;;;;5048191;28;20044;-61
2022/03/24 05:24:12;;;;;;;28.25;22.38;;;;;;;;;;5029481;28;20480;-61
2022/03/24 05:26:39;;;;;;;29.08;21.52;;;;;;;;;;5029094;28;20103;-61
2022/03/24 05:29:05;;;;;;;25.48;19.58;;;;;;;;;;5069069;28;20396;-61
2022/03/24 05:31:31;;;;;;;28.02;21.33;;;;;;;;;;5065118;28;20420;-62
2022/03/24 05:33:58;;;;;;;27.58;20.92;;;;;;;;;;5049161;28;20357;-61
2022/03/24 05:36:24;;;;;;;28.70;19.80;;;;;;;;;;5049138;28;20044;-61
2022/03/24 05:38:51;;;;;;;25.77;20.42;;;;;;;;;;5049234;28;20060;-61
2022/03/24 05:41:18;;;;;;;41.20;27.67;;;;;;;;;;5048120;28;20037;-61
2022/03/24 05:44:02;;;;;;;33.33;23.40;;;;;;;;;;5048617;28;20049;-61
2022/03/24 05:46:28;;;;;;;;;;;;;;;;;;5048930;28;20069;-61
2022/03/24 05:48:54;;;;;;;27.05;19.13;;;;;;;;;;5031161;28;19921;-61
2022/03/24 05:51:20;;;;;;;30.15;22.05;;;;;;;;;;5049498;28;20384;-61
2022/03/24 05:53:46;;;;;;;28.38;21.85;;;;;;;;;;5031477;28;20060;-61
2022/03/24 05:56:13;;;;;;;35.67;24.67;;;;;;;;;;5030290;28;20515;-62
2022/03/24 05:58:39;;;;;;;43.35;25.65;;;;;;;;;;5050490;28;20045;-62
2022/03/24 06:01:05;;;;;;;38.38;27.13;;;;;;;;;;5052654;28;20044;-61
2022/03/24 06:03:35;;;;;;;43.72;28.50;;;;;;;;;;5051689;28;20128;-62
2022/03/24 06:06:01;;;;;;;37.05;26.98;;;;;;;;;;5035065;28;20052;-62
2022/03/24 06:08:27;;;;;;;36.35;26.42;;;;;;;;;;5068346;28;20045;-62
2022/03/24 06:10:54;;;;;;;73.18;26.50;;;;;;;;;;5034282;28;20053;-62
2022/03/24 06:13:20;;;;;;;90.93;26.35;;;;;;;;;;5034272;28;20375;-62
2022/03/24 06:15:50;;;;;;;34.25;23.38;;;;;;;;;;5052472;28;20399;-61
2022/03/24 06:18:16;;;;;;;40.20;23.55;;;;;;;;;;5051465;28;20040;-62
2022/03/24 06:20:44;;;;;;;61.85;23.45;;;;;;;;;;5052757;28;20045;-62
2022/03/24 06:23:10;;;;;;;25.65;20.63;;;;;;;;;;5052915;28;20094;-61
2022/03/24 06:25:37;;;;;;;23.40;19.80;;;;;;;;;;5051468;28;20037;-62
2022/03/24 06:28:06;;;;;;;26.40;19.23;;;;;;;;;;5051158;28;20037;-62
2022/03/24 06:30:32;;;;;;;25.63;19.83;;;;;;;;;;5050374;28;20061;-62
2022/03/24 06:32:59;;;;;;;28.42;20.77;;;;;;;;;;5052057;28;20049;-62
2022/03/24 06:35:25;;;;;;;30.13;23.20;;;;;;;;;;5033443;28;20041;-62
2022/03/24 06:37:52;;;;;;;34.83;26.13;;;;;;;;;;5051682;28;20041;-62
2022/03/24 06:40:19;;;;;;;32.47;25.02;;;;;;;;;;5035792;28;20337;-62
2022/03/24 06:42:45;;;;;;;32.83;25.98;;;;;;;;;;5053139;28;20044;-62
2022/03/24 06:45:12;;;;;;;34.95;26.13;;;;;;;;;;5033246;28;20094;-62
2022/03/24 06:47:39;;;;;;;34.35;26.35;;;;;;;;;;5032739;28;20057;-63
2022/03/24 06:50:06;;;;;;;46.58;31.73;;;;;;;;;;5050889;28;20052;-62
2022/03/24 06:52:32;;;;;;;57.15;36.00;;;;;;;;;;5049445;28;20048;-62
2022/03/24 06:54:58;;;;;;;57.92;36.97;;;;;;;;;;5031627;28;20041;-62
2022/03/24 06:57:26;;;;;;;59.72;37.53;;;;;;;;;;5050471;28;20049;-62
2022/03/24 06:59:52;;;;;;;68.28;41.70;;;;;;;;;;5029809;28;20061;-62
2022/03/24 07:02:18;;;;;;;75.78;45.28;;;;;;;;;;5047969;28;20091;-62
2022/03/24 07:04:44;;;;;;;61.67;40.53;;;;;;;;;;5060558;28;20043;-62
2022/03/24 07:07:10;;;;;;;67.80;41.40;;;;;;;;;;5046383;28;20072;-62
2022/03/24 07:09:36;;;;;;;67.07;43.55;;;;;;;;;;5060047;28;20049;-63
2022/03/24 07:12:03;;;;;;;76.63;46.50;;;;;;;;;;5060949;28;20511;-62
2022/03/24 07:14:29;;;;;;;79.28;46.60;;;;;;;;;;5060046;28;20530;-62
2022/03/24 07:16:55;;;;;;;84.93;48.10;;;;;;;;;;5049206;28;20038;-62
2022/03/24 07:19:21;;;;;;;88.78;51.97;;;;;;;;;;5049445;28;20106;-62
2022/03/24 07:21:47;;;;;;;103.18;56.17;;;;;;;;;;5049155;28;20041;-62
2022/03/24 07:24:14;;;;;;;115.07;58.75;;;;;;;;;;5064113;28;20049;-62
2022/03/24 07:26:40;;;;;;;112.90;58.05;;;;;;;;;;5063881;28;20512;-61
2022/03/24 07:29:06;;;;;;;118.50;60.10;;;;;;;;;;5048716;28;20369;-62
2022/03/24 07:31:33;;;;;;;128.27;66.43;;;;;;;;;;5048929;28;20072;-62
2022/03/24 07:34:00;;;;;;;140.55;70.68;;;;;;;;;;5058514;28;20053;-62
2022/03/24 07:36:26;;;;;;;165.02;82.45;;;;;;;;;;5048785;28;20037;-62
2022/03/24 07:38:52;;;;;;;163.13;84.78;;;;;;;;;;5028054;28;20105;-62
2022/03/24 07:41:19;;;;;;;166.20;84.60;;;;;;;;;;5012590;28;20041;-62
2022/03/24 07:43:45;;;;;;;160.60;81.97;;;;;;;;;;5048985;28;20197;-62
2022/03/24 07:46:12;;;;;;;168.52;83.10;;;;;;;;;;5030449;28;20166;-63
2022/03/24 07:48:38;;;;;;;148.43;81.28;;;;;;;;;;5046230;28;20491;-62
2022/03/24 07:51:05;;;;;;;152.73;84.75;;;;;;;;;;5062625;28;20044;-62
2022/03/24 07:53:34;;;;;;;148.90;80.82;;;;;;;;;;5048349;28;20503;-63
2022/03/24 07:56:01;;;;;;;168.10;85.28;;;;;;;;;;5044356;28;20128;-63
2022/03/24 07:58:27;;;;;;;159.48;86.55;;;;;;;;;;5045927;28;20053;-62
2022/03/24 08:00:57;;;;;;;152.27;83.88;;;;;;;;;;5029752;28;20060;-63
2022/03/24 08:03:23;;;;;;;145.35;84.63;;;;;;;;;;5028885;28;20044;-63
2022/03/24 08:05:49;;;;;;;146.07;84.15;;;;;;;;;;5049802;28;20336;-63
2022/03/24 08:08:15;;;;;;;146.55;85.43;;;;;;;;;;5030716;28;20570;-63
2022/03/24 08:10:42;;;;;;;144.95;86.10;;;;;;;;;;5048594;28;20107;-62
2022/03/24 08:13:09;;;;;;;149.50;86.43;;;;;;;;;;5063498;28;20041;-62
2022/03/24 08:15:36;;;;;;;145.10;84.38;;;;;;;;;;5031050;28;20140;-62
2022/03/24 08:18:04;;;;;;;143.73;85.65;;;;;;;;;;5048590;28;20587;-63
2022/03/24 08:20:30;;;;;;;137.88;86.57;;;;;;;;;;5061711;28;20052;-62
2022/03/24 08:22:57;;;;;;;142.02;81.95;;;;;;;;;;5048963;28;20095;-62
2022/03/24 08:25:23;;;;;;;128.23;75.95;;;;;;;;;;5048457;28;20045;-62
2022/03/24 08:27:49;;;;;;;125.30;76.95;;;;;;;;;;5049015;28;20036;-62
2022/03/24 08:30:15;;;;;;;127.10;76.03;;;;;;;;;;5048212;28;20384;-63
2022/03/24 08:32:42;;;;;;;119.50;73.18;;;;;;;;;;5046313;28;20477;-63
2022/03/24 08:35:08;;;;;;;112.82;72.13;;;;;;;;;;5046431;28;20036;-62
2022/03/24 08:37:34;;;;;;;115.07;70.05;;;;;;;;;;5059102;28;20384;-62
2022/03/24 08:40:01;;;;;;;108.85;69.07;;;;;;;;;;5044341;28;20385;-63
2022/03/24 08:42:27;;;;;;;106.82;69.88;;;;;;;;;;5048770;28;20090;-62
2022/03/24 08:44:53;;;;;;;102.38;66.75;;;;;;;;;;5030320;28;20048;-62
2022/03/24 08:47:20;;;;;;;103.40;66.55;;;;;;;;;;5048488;28;20472;-62
2022/03/24 08:49:46;;;;;;;108.15;67.43;;;;;;;;;;5049076;28;20057;-62
2022/03/24 08:52:12;;;;;;;97.10;65.47;;;;;;;;;;5059445;28;20086;-62
2022/03/24 08:54:38;;;;;;;98.13;64.03;;;;;;;;;;5046409;28;20040;-62
2022/03/24 08:57:05;;;;;;;97.28;64.40;;;;;;;;;;5061777;28;20079;-62
2022/03/24 08:59:31;;;;;;;102.40;64.07;;;;;;;;;;5046608;28;20042;-62
2022/03/24 09:01:58;;;;;;;101.85;64.72;;;;;;;;;;5044627;28;20571;-63
2022/03/24 09:04:26;;;;;;;94.75;64.88;;;;;;;;;;5046526;28;20076;-63
2022/03/24 09:06:54;;;;;;;93.55;61.05;;;;;;;;;;5046473;28;20369;-63
2022/03/24 09:09:22;;;;;;;90.97;61.38;;;;;;;;;;5012106;28;20037;-62
2022/03/24 09:11:49;;;;;;;88.78;60.67;;;;;;;;;;5057020;28;20046;-62
2022/03/24 09:14:16;;;;;;;93.22;60.92;;;;;;;;;;5046287;28;20128;-62
2022/03/24 09:16:42;;;;;;;88.63;60.55;;;;;;;;;;5062576;28;20071;-62
2022/03/24 09:19:10;;;;;;;86.00;59.35;;;;;;;;;;5061082;28;20047;-62
2022/03/24 09:21:36;;;;;;;88.28;58.30;;;;;;;;;;5046293;28;20041;-63
2022/03/24 09:24:02;;;;;;;88.13;60.40;;;;;;;;;;5061903;28;20052;-62
2022/03/24 09:26:28;;;;;;;79.47;54.15;;;;;;;;;;5058426;28;20072;-63
2022/03/24 09:28:54;;;;;;;82.47;56.20;;;;;;;;;;5048132;28;20040;-63
2022/03/24 09:31:21;;;;;;;86.45;56.53;;;;;;;;;;5046690;28;20067;-63
2022/03/24 09:33:47;;;;;;;77.10;53.40;;;;;;;;;;5047120;28;20045;-63
2022/03/24 09:36:14;;;;;;;82.50;53.65;;;;;;;;;;5065367;28;20037;-62
2022/03/24 09:38:40;;;;;;;75.25;52.72;;;;;;;;;;5051355;28;20072;-62
2022/03/24 09:41:06;;;;;;;70.75;49.92;;;;;;;;;;5049037;28;20037;-62
2022/03/24 09:43:34;;;;;;;76.20;50.05;;;;;;;;;;5050834;28;20075;-63
2022/03/24 09:46:02;;;;;;;74.10;51.45;;;;;;;;;;5050419;28;20068;-62
2022/03/24 09:48:28;;;;;;;69.50;48.00;;;;;;;;;;5031940;28;20049;-62
2022/03/24 09:50:54;;;;;;;71.60;50.05;;;;;;;;;;5053069;28;20399;-62
2022/03/24 09:53:21;;;;;;;73.40;49.13;;;;;;;;;;5053377;28;20136;-63
2022/03/24 09:55:47;;;;;;;64.25;46.22;;;;;;;;;;5068327;28;20072;-63
2022/03/24 09:58:14;;;;;;;57.40;41.83;;;;;;;;;;5054181;28;20040;-63
2022/03/24 10:00:40;;;;;;;64.13;42.92;;;;;;;;;;5036278;28;20056;-63
2022/03/24 10:03:12;;;;;;;67.30;47.30;;;;;;;;;;5019393;28;20392;-63
2022/03/24 10:05:53;;;;;;;69.85;46.70;;;;;;;;;;5033191;28;20048;-63
2022/03/24 10:08:19;;;;;;;63.60;44.67;;;;;;;;;;5036505;28;20041;-63
2022/03/24 10:10:45;;;;;;;66.93;44.42;;;;;;;;;;5053537;28;20094;-63
2022/03/24 10:13:11;;;;;;;61.53;43.00;;;;;;;;;;5036143;28;20515;-63
2022/03/24 10:15:38;;;;;;;59.97;43.15;;;;;;;;;;5053489;28;20125;-63
2022/03/24 10:18:05;;;;;;;63.40;43.05;;;;;;;;;;5050225;28;20131;-63
2022/03/24 10:20:33;;;;;;;54.65;40.22;;;;;;;;;;5053933;28;20508;-63
2022/03/24 10:23:02;;;;;;;57.22;40.33;;;;;;;;;;5035335;28;20375;-63
2022/03/24 10:25:30;;;;;;;56.45;40.42;;;;;;;;;;5054063;28;20502;-63
2022/03/24 10:28:10;;;;;;;55.28;40.55;;;;;;;;;;5035917;28;20067;-63
2022/03/24 10:30:46;;;;;;;57.40;39.20;;;;;;;;;;5050525;28;20040;-63
2022/03/24 10:33:26;;;;;;;59.63;42.13;;;;;;;;;;5035659;28;20492;-62
2022/03/24 10:36:04;;;;;;;59.38;44.78;;;;;;;;;;5053481;28;20191;-63
2022/03/24 10:38:39;;;;;;;57.00;42.28;;;;;;;;;;5052294;28;20073;-63
2022/03/24 10:41:12;;;;;;;61.85;42.95;;;;;;;;;;5035920;28;20425;-63
2022/03/24 10:43:39;;;;;;;59.63;41.97;;;;;;;;;;5053755;28;20123;-63
2022/03/24 10:46:12;;;;;;;55.75;41.00;;;;;;;;;;5033812;28;20283;-63
2022/03/24 10:48:38;;;;;;;59.75;42.55;;;;;;;;;;5053810;28;20037;-63
2022/03/24 10:51:04;;;;;;;55.05;42.97;;;;;;;;;;5052554;28;20048;-62
2022/03/24 10:53:38;;;;;;;58.60;41.42;;;;;;;;;;5051826;28;20091;-63
2022/03/24 10:56:13;;;;;;;53.75;41.25;;;;;;;;;;5052823;28;20037;-63
2022/03/24 10:58:44;;;;;;;55.17;40.63;;;;;;;;;;5051678;28;20040;-63
2022/03/24 11:01:11;;;;;;;58.60;43.25;;;;;;;;;;5052829;28;20052;-63
2022/03/24 11:03:39;;;;;;;58.83;43.00;;;;;;;;;;5052529;28;20040;-63
2022/03/24 11:06:10;;;;;;;58.05;42.58;;;;;;;;;;5033338;28;20045;-63
2022/03/24 11:08:36;;;;;;;51.33;39.03;;;;;;;;;;5052157;28;20033;-63
2022/03/24 11:11:06;;;;;;;53.70;39.58;;;;;;;;;;5034039;28;20404;-63
2022/03/24 11:13:41;;;;;;;50.72;40.47;;;;;;;;;;5048585;28;20053;-63
2022/03/24 11:16:09;;;;;;;51.60;40.88;;;;;;;;;;5052040;28;20503;-63
2022/03/24 11:18:36;;;;;;;56.53;43.08;;;;;;;;;;5066686;28;20392;-63
2022/03/24 11:21:04;;;;;;;55.00;42.47;;;;;;;;;;5033019;28;20045;-63
2022/03/24 11:23:35;;;;;;;54.35;42.03;;;;;;;;;;5052393;28;20056;-63
2022/03/24 11:26:02;;;;;;;48.92;41.92;;;;;;;;;;5051156;28;20055;-63
2022/03/24 11:28:28;;;;;;;49.85;41.47;;;;;;;;;;5064564;28;20041;-63
2022/03/24 11:30:54;;;;;;;53.97;43.17;;;;;;;;;;5051570;28;20060;-63
2022/03/24 11:33:21;;;;;;;55.20;43.75;;;;;;;;;;5032583;28;20044;-63
2022/03/24 11:35:53;;;;;;;46.90;41.70;;;;;;;;;;5033947;28;20056;-63
2022/03/24 11:38:20;;;;;;;50.83;41.97;;;;;;;;;;5050307;28;20045;-63
2022/03/24 11:40:47;;;;;;;47.30;40.75;;;;;;;;;;5066378;28;20821;-63
2022/03/24 11:43:15;;;;;;;45.00;39.17;;;;;;;;;;5033314;28;20496;-63
2022/03/24 11:45:52;;;;;;;44.33;36.90;;;;;;;;;;5051510;28;20037;-63
2022/03/24 11:48:19;;;;;;;43.20;37.40;;;;;;;;;;5051001;28;20091;-63
2022/03/24 11:50:47;;;;;;;40.00;35.05;;;;;;;;;;5051557;28;20049;-64
2022/03/24 11:53:17;;;;;;;46.50;36.35;;;;;;;;;;5051027;28;20037;-63
2022/03/24 11:56:04;;;;;;;45.78;35.83;;;;;;;;;;5032229;28;20041;-64
2022/03/24 11:58:32;;;;;;;40.63;34.58;;;;;;;;;;5050376;28;20103;-63
2022/03/24 12:01:18;;;;;;;40.10;33.65;;;;;;;;;;5066471;28;20041;-63
2022/03/24 12:03:46;;;;;;;41.20;32.55;;;;;;;;;;5050288;28;20076;-64
2022/03/24 12:06:13;;;;;;;39.83;32.42;;;;;;;;;;5033200;28;20041;-63
2022/03/24 12:08:45;;;;;;;38.85;34.50;;;;;;;;;;5064678;28;20033;-63
2022/03/24 12:11:30;;;;;;;38.67;33.10;;;;;;;;;;5033069;28;20056;-64
2022/03/24 12:13:56;;;;;;;42.03;32.95;;;;;;;;;;5049630;28;20481;-64
2022/03/24 12:16:24;;;;;;;40.25;32.13;;;;;;;;;;5032422;28;20543;-63
2022/03/24 12:18:50;;;;;;;41.33;33.63;;;;;;;;;;5047549;28;20463;-63
2022/03/24 12:21:21;;;;;;;36.67;32.72;;;;;;;;;;5050726;28;20076;-64
2022/03/24 12:24:03;;;;;;;42.30;34.20;;;;;;;;;;5032058;28;20050;-63
2022/03/24 12:26:30;;;;;;;36.33;31.65;;;;;;;;;;5050587;28;20108;-64
2022/03/24 12:29:11;;;;;;;38.30;32.67;;;;;;;;;;5050554;28;20049;-63
2022/03/24 12:31:56;;;;;;;42.83;33.65;;;;;;;;;;5028703;28;20101;-64
2022/03/24 12:34:22;;;;;;;40.97;33.47;;;;;;;;;;5030771;28;20053;-64
2022/03/24 12:36:50;;;;;;;40.53;32.05;;;;;;;;;;5030187;28;20051;-64
2022/03/24 12:39:31;;;;;;;39.90;29.60;;;;;;;;;;5030739;28;20053;-64
2022/03/24 12:42:04;;;;;;;36.97;30.70;;;;;;;;;;5060847;28;20497;-64
2022/03/24 12:44:56;;;;;;;45.90;35.17;;;;;;;;;;5030152;28;20098;-63
2022/03/24 12:47:31;;;;;;;43.67;35.78;;;;;;;;;;5028329;28;20543;-64
2022/03/24 12:49:58;;;;;;;44.03;36.60;;;;;;;;;;5028301;28;20465;-64
2022/03/24 12:52:47;;;;;;;43.33;34.30;;;;;;;;;;5062341;28;20072;-64
2022/03/24 12:55:27;;;;;;;42.78;33.00;;;;;;;;;;5028783;28;20469;-64
2022/03/24 12:57:55;;;;;;;40.70;34.10;;;;;;;;;;5028156;28;20075;-64
2022/03/24 13:00:24;;;;;;;40.97;32.30;;;;;;;;;;5030477;28;20048;-64
2022/03/24 13:02:50;;;;;;;41.15;34.33;;;;;;;;;;5030469;28;20056;-64
2022/03/24 13:05:26;;;;;;;37.65;33.05;;;;;;;;;;5029877;28;20041;-63
2022/03/24 13:07:53;;;;;;;43.65;33.08;;;;;;;;;;5028683;28;20050;-64
2022/03/24 13:10:20;;;;;;;38.70;32.25;;;;;;;;;;5029633;28;20044;-63
2022/03/24 13:12:48;;;;;;;40.05;30.70;;;;;;;;;;5028861;28;20037;-64
2022/03/24 13:15:19;;;;;;;38.20;32.17;;;;;;;;;;5030114;28;20424;-64
2022/03/24 13:17:48;;;;;;;40.17;34.25;;;;;;;;;;5030437;28;20038;-64
2022/03/24 13:20:15;;;;;;;38.55;33.05;;;;;;;;;;5028569;28;20081;-64
2022/03/24 13:22:41;;;;;;;45.60;33.72;;;;;;;;;;5029850;28;20045;-64
2022/03/24 13:25:10;;;;;;;42.20;35.53;;;;;;;;;;5030488;28;20548;-63
2022/03/24 13:27:39;;;;;;;42.88;33.22;;;;;;;;;;5029125;28;20048;-64
2022/03/24 13:30:07;;;;;;;43.15;33.80;;;;;;;;;;5029094;28;20183;-63
2022/03/24 13:32:33;;;;;;;42.70;32.10;;;;;;;;;;5048900;28;20440;-64
2022/03/24 13:35:01;;;;;;;35.75;29.40;;;;;;;;;;5049872;28;20043;-63
2022/03/24 13:37:33;;;;;;;40.17;32.05;;;;;;;;;;5065082;28;20068;-64
2022/03/24 13:40:00;;;;;;;36.80;29.03;;;;;;;;;;5064771;28;20122;-63
2022/03/24 13:42:27;;;;;;;40.60;33.78;;;;;;;;;;5049653;28;20049;-63
2022/03/24 13:44:54;;;;;;;40.80;29.25;;;;;;;;;;5049147;28;20041;-64
2022/03/24 13:47:23;;;;;;;50.38;30.60;;;;;;;;;;5027192;28;20051;-63
2022/03/24 13:49:55;;;;;;;42.13;30.33;;;;;;;;;;5056438;28;20051;-63
2022/03/24 13:52:34;;;;;;;49.10;36.58;;;;;;;;;;5028980;28;20045;-63
2022/03/24 13:55:03;;;;;;;50.28;37.80;;;;;;;;;;5047052;28;20517;-63
2022/03/24 13:57:30;;;;;;;42.45;36.40;;;;;;;;;;5048314;28;20048;-63
2022/03/24 13:59:56;;;;;;;49.67;38.47;;;;;;;;;;5030260;28;20131;-64
2022/03/24 14:02:24;;;;;;;46.22;36.45;;;;;;;;;;5047333;28;20056;-63
2022/03/24 14:05:01;;;;;;;49.40;35.55;;;;;;;;;;5028995;28;20191;-63
2022/03/24 14:07:28;;;;;;;48.63;36.45;;;;;;;;;;5047368;28;20052;-63
2022/03/24 14:09:54;;;;;;;52.40;40.58;;;;;;;;;;5056150;28;20369;-63
2022/03/24 14:12:22;;;;;;;45.70;37.83;;;;;;;;;;5057499;28;20056;-63
2022/03/24 14:14:48;;;;;;;44.28;37.97;;;;;;;;;;5044048;28;20053;-63
2022/03/24 14:17:16;;;;;;;46.05;33.95;;;;;;;;;;5062412;28;20500;-63
2022/03/24 14:19:53;;;;;;;43.28;33.85;;;;;;;;;;5047143;28;20047;-63